sensor_id;sensor_type;location;lat;lon;timestamp;pressure;altitude;pressure_sealevel;temperature;humidity
20987;BME280;10652;50.306;8.570;2022-11-23T00:02:25;96481.88;;;7.12;100.00
20987;BME280;10652;50.306;8.570;2022-11-23T00:06:27;96478.72;;;7.06;100.00
20987;BME280;10652;50.306;8.570;2022-11-23T00:10:29;96484.94;;;7.03;100.00
20987;BME280;10652;50.306;8.570;2022-11-23T00:14:31;96486.75;;;7.01;100.00
20987;BME280;10652;50.306;8.570;2022-11-23T00:18:33;96475.59;;;6.99;100.00
20987;BME280;10652;50.306;8.570;2022-11-23T00:22:35;96482.00;;;6.92;100.00
20987;BME280;10652;50.306;8.570;2022-11-23T00:26:37;96478.78;;;6.87;100.00
20987;BME280;10652;50.306;8.570;2022-11-23T00:30:40;96462.34;;;6.87;100.00
20987;BME280;10652;50.306;8.570;2022-11-23T00:34:42;96475.34;;;6.87;100.00
20987;BME280;10652;50.306;8.570;2022-11-23T00:38:44;96473.75;;;6.84;100.00
20987;BME280;10652;50.306;8.570;2022-11-23T00:42:46;96467.41;;;6.90;100.00
20987;BME280;10652;50.306;8.570;2022-11-23T00:46:48;96465.66;;;6.90;100.00
20987;BME280;10652;50.306;8.570;2022-11-23T00:50:50;96469.00;;;6.92;100.00
20987;BME280;10652;50.306;8.570;2022-11-23T00:54:52;96464.66;;;6.93;100.00
20987;BME280;10652;50.306;8.570;2022-11-23T00:58:57;96467.94;;;6.96;100.00
20987;BME280;10652;50.306;8.570;2022-11-23T01:02:59;96474.66;;;7.00;100.00
20987;BME280;10652;50.306;8.570;2022-11-23T01:07:02;96478.66;;;7.07;100.00
20987;BME280;10652;50.306;8.570;2022-11-23T01:11:08;96474.06;;;7.12;100.00
20987;BME280;10652;50.306;8.570;2022-11-23T01:15:11;96472.06;;;7.18;100.00
20987;BME280;10652;50.306;8.570;2022-11-23T01:19:16;96476.25;;;7.20;100.00
20987;BME280;10652;50.306;8.570;2022-11-23T01:23:21;96478.81;;;7.22;100.00
20987;BME280;10652;50.306;8.570;2022-11-23T01:27:23;96475.13;;;7.26;100.00
20987;BME280;10652;50.306;8.570;2022-11-23T01:31:26;96483.69;;;7.28;100.00
20987;BME280;10652;50.306;8.570;2022-11-23T01:35:28;96487.97;;;7.29;100.00
20987;BME280;10652;50.306;8.570;2022-11-23T01:39:30;96474.09;;;7.28;100.00
20987;BME280;10652;50.306;8.570;2022-11-23T01:43:32;96482.94;;;7.26;100.00
20987;BME280;10652;50.306;8.570;2022-11-23T01:47:35;96493.56;;;7.21;100.00
20987;BME280;10652;50.306;8.570;2022-11-23T01:51:40;96503.13;;;7.21;100.00
20987;BME280;10652;50.306;8.570;2022-11-23T01:55:45;96492.72;;;7.21;100.00
20987;BME280;10652;50.306;8.570;2022-11-23T01:59:49;96499.75;;;7.19;100.00
20987;BME280;10652;50.306;8.570;2022-11-23T02:03:55;96501.75;;;7.13;100.00
20987;BME280;10652;50.306;8.570;2022-11-23T02:07:58;96506.13;;;7.13;100.00
20987;BME280;10652;50.306;8.570;2022-11-23T02:12:01;96504.34;;;7.13;100.00
20987;BME280;10652;50.306;8.570;2022-11-23T02:16:03;96499.06;;;7.15;100.00
20987;BME280;10652;50.306;8.570;2022-11-23T02:20:13;96508.66;;;7.14;100.00
20987;BME280;10652;50.306;8.570;2022-11-23T02:24:31;96504.97;;;7.19;100.00
20987;BME280;10652;50.306;8.570;2022-11-23T02:28:37;96509.09;;;7.23;100.00
20987;BME280;10652;50.306;8.570;2022-11-23T02:32:42;96503.13;;;7.21;100.00
20987;BME280;10652;50.306;8.570;2022-11-23T02:36:53;96494.41;;;7.22;100.00
20987;BME280;10652;50.306;8.570;2022-11-23T02:40:56;96489.22;;;7.22;100.00
20987;BME280;10652;50.306;8.570;2022-11-23T02:45:09;96486.50;;;7.23;100.00
20987;BME280;10652;50.306;8.570;2022-11-23T02:49:16;96494.41;;;7.22;100.00
20987;BME280;10652;50.306;8.570;2022-11-23T02:53:18;96490.97;;;7.21;100.00
20987;BME280;10652;50.306;8.570;2022-11-23T02:57:20;96492.56;;;7.24;100.00
20987;BME280;10652;50.306;8.570;2022-11-23T03:01:22;96488.13;;;7.26;100.00
20987;BME280;10652;50.306;8.570;2022-11-23T03:05:25;96488.88;;;7.28;100.00
20987;BME280;10652;50.306;8.570;2022-11-23T03:09:27;96478.47;;;7.28;100.00
20987;BME280;10652;50.306;8.570;2022-11-23T03:13:30;96481.22;;;7.42;100.00
20987;BME280;10652;50.306;8.570;2022-11-23T03:17:34;96472.47;;;7.43;100.00
20987;BME280;10652;50.306;8.570;2022-11-23T03:21:36;96477.69;;;7.43;100.00
20987;BME280;10652;50.306;8.570;2022-11-23T03:25:41;96487.09;;;7.45;100.00
20987;BME280;10652;50.306;8.570;2022-11-23T03:29:44;96491.63;;;7.42;100.00
20987;BME280;10652;50.306;8.570;2022-11-23T03:33:51;96489.88;;;7.42;100.00
20987;BME280;10652;50.306;8.570;2022-11-23T03:37:53;96497.69;;;7.42;100.00
20987;BME280;10652;50.306;8.570;2022-11-23T03:41:55;96508.16;;;7.41;100.00
20987;BME280;10652;50.306;8.570;2022-11-23T03:46:04;96504.81;;;7.39;100.00
20987;BME280;10652;50.306;8.570;2022-11-23T03:50:06;96502.38;;;7.36;100.00
20987;BME280;10652;50.306;8.570;2022-11-23T03:54:08;96505.72;;;7.38;100.00
20987;BME280;10652;50.306;8.570;2022-11-23T03:58:12;96501.44;;;7.37;100.00
20987;BME280;10652;50.306;8.570;2022-11-23T04:02:15;96504.38;;;7.31;100.00
20987;BME280;10652;50.306;8.570;2022-11-23T04:06:25;96508.72;;;7.30;100.00
20987;BME280;10652;50.306;8.570;2022-11-23T04:10:34;96496.91;;;7.23;100.00
20987;BME280;10652;50.306;8.570;2022-11-23T04:14:46;96505.59;;;7.06;100.00
20987;BME280;10652;50.306;8.570;2022-11-23T04:18:48;96501.63;;;6.99;100.00
20987;BME280;10652;50.306;8.570;2022-11-23T04:22:50;96504.22;;;6.99;100.00
20987;BME280;10652;50.306;8.570;2022-11-23T04:26:53;96510.25;;;7.00;100.00
20987;BME280;10652;50.306;8.570;2022-11-23T04:30:55;96505.88;;;7.00;100.00
20987;BME280;10652;50.306;8.570;2022-11-23T04:35:02;96507.72;;;6.98;100.00
20987;BME280;10652;50.306;8.570;2022-11-23T04:39:05;96510.25;;;7.00;100.00
20987;BME280;10652;50.306;8.570;2022-11-23T04:43:15;96516.84;;;7.07;100.00
20987;BME280;10652;50.306;8.570;2022-11-23T04:47:17;96518.22;;;7.14;100.00
20987;BME280;10652;50.306;8.570;2022-11-23T04:51:21;96514.63;;;7.17;100.00
20987;BME280;10652;50.306;8.570;2022-11-23T04:55:24;96507.50;;;7.20;100.00
20987;BME280;10652;50.306;8.570;2022-11-23T04:59:31;96502.38;;;7.19;100.00
20987;BME280;10652;50.306;8.570;2022-11-23T05:03:33;96494.56;;;7.19;100.00
20987;BME280;10652;50.306;8.570;2022-11-23T05:07:38;96501.75;;;7.13;100.00
20987;BME280;10652;50.306;8.570;2022-11-23T05:11:40;96508.66;;;7.14;100.00
20987;BME280;10652;50.306;8.570;2022-11-23T05:15:44;96511.19;;;7.16;100.00
20987;BME280;10652;50.306;8.570;2022-11-23T05:19:50;96504.13;;;7.18;100.00
20987;BME280;10652;50.306;8.570;2022-11-23T05:23:53;96509.31;;;7.18;100.00
20987;BME280;10652;50.306;8.570;2022-11-23T05:27:55;96509.09;;;7.23;100.00
20987;BME280;10652;50.306;8.570;2022-11-23T05:31:58;96512.53;;;7.23;100.00
20987;BME280;10652;50.306;8.570;2022-11-23T05:36:00;96512.53;;;7.23;100.00
20987;BME280;10652;50.306;8.570;2022-11-23T05:40:10;96502.22;;;7.22;100.00
20987;BME280;10652;50.306;8.570;2022-11-23T05:44:13;96506.66;;;7.20;100.00
20987;BME280;10652;50.306;8.570;2022-11-23T05:48:15;96518.13;;;7.15;100.00
20987;BME280;10652;50.306;8.570;2022-11-23T05:52:30;96519.38;;;7.08;100.00
20987;BME280;10652;50.306;8.570;2022-11-23T05:56:32;96529.06;;;7.05;100.00
20987;BME280;10652;50.306;8.570;2022-11-23T06:00:47;96517.75;;;7.06;100.00
20987;BME280;10652;50.306;8.570;2022-11-23T06:04:51;96516.84;;;7.07;100.00
20987;BME280;10652;50.306;8.570;2022-11-23T06:08:59;96516.00;;;7.06;100.00
20987;BME280;10652;50.306;8.570;2022-11-23T06:13:03;96521.38;;;7.03;100.00
20987;BME280;10652;50.306;8.570;2022-11-23T06:17:06;96530.03;;;7.04;100.00
20987;BME280;10652;50.306;8.570;2022-11-23T06:21:17;96523.13;;;7.03;100.00
20987;BME280;10652;50.306;8.570;2022-11-23T06:25:20;96531.16;;;6.98;100.00
20987;BME280;10652;50.306;8.570;2022-11-23T06:29:32;96526.78;;;6.99;100.00
20987;BME280;10652;50.306;8.570;2022-11-23T06:33:35;96530.25;;;6.99;100.00
20987;BME280;10652;50.306;8.570;2022-11-23T06:37:37;96532.47;;;7.07;100.00
20987;BME280;10652;50.306;8.570;2022-11-23T06:41:40;96536.59;;;7.11;100.00
20987;BME280;10652;50.306;8.570;2022-11-23T06:45:43;96538.19;;;7.13;100.00
20987;BME280;10652;50.306;8.570;2022-11-23T06:49:48;96534.78;;;7.13;100.00
20987;BME280;10652;50.306;8.570;2022-11-23T06:53:59;96545.09;;;7.14;100.00
20987;BME280;10652;50.306;8.570;2022-11-23T06:58:01;96551.13;;;7.15;100.00
20987;BME280;10652;50.306;8.570;2022-11-23T07:02:03;96559.63;;;7.19;100.00
20987;BME280;10652;50.306;8.570;2022-11-23T07:06:09;96558.56;;;7.57;100.00
20987;BME280;10652;50.306;8.570;2022-11-23T07:10:12;96555.91;;;7.74;100.00
20987;BME280;10652;50.306;8.570;2022-11-23T07:14:19;96561.44;;;7.68;100.00
20987;BME280;10652;50.306;8.570;2022-11-23T07:18:25;96559.91;;;7.64;100.00
20987;BME280;10652;50.306;8.570;2022-11-23T07:22:32;96557.47;;;7.61;100.00
20987;BME280;10652;50.306;8.570;2022-11-23T07:26:34;96558.41;;;7.60;100.00
20987;BME280;10652;50.306;8.570;2022-11-23T07:30:38;96554.19;;;7.57;100.00
20987;BME280;10652;50.306;8.570;2022-11-23T07:34:40;96567.97;;;7.59;100.00
20987;BME280;10652;50.306;8.570;2022-11-23T07:38:43;96571.19;;;7.65;100.00
20987;BME280;10652;50.306;8.570;2022-11-23T07:42:47;96570.19;;;7.67;100.00
20987;BME280;10652;50.306;8.570;2022-11-23T07:46:52;96572.88;;;7.66;100.00
20987;BME280;10652;50.306;8.570;2022-11-23T07:50:54;96578.75;;;7.69;100.00
20987;BME280;10652;50.306;8.570;2022-11-23T07:54:56;96574.00;;;7.77;100.00
20987;BME280;10652;50.306;8.570;2022-11-23T07:58:58;96579.13;;;7.79;100.00
20987;BME280;10652;50.306;8.570;2022-11-23T08:03:00;96579.81;;;7.82;100.00
20987;BME280;10652;50.306;8.570;2022-11-23T08:07:22;96566.66;;;7.85;100.00
20987;BME280;10652;50.306;8.570;2022-11-23T08:11:24;96573.50;;;7.86;100.00
20987;BME280;10652;50.306;8.570;2022-11-23T08:15:26;96576.69;;;7.76;100.00
20987;BME280;10652;50.306;8.570;2022-11-23T08:19:28;96582.69;;;7.60;100.00
20987;BME280;10652;50.306;8.570;2022-11-23T08:23:31;96586.81;;;7.65;100.00
20987;BME280;10652;50.306;8.570;2022-11-23T08:27:33;96599.28;;;7.75;100.00
20987;BME280;10652;50.306;8.570;2022-11-23T08:31:35;96598.97;;;7.81;100.00
20987;BME280;10652;50.306;8.570;2022-11-23T08:35:39;96602.03;;;7.89;100.00
20987;BME280;10652;50.306;8.570;2022-11-23T08:39:41;96607.25;;;7.89;100.00
20987;BME280;10652;50.306;8.570;2022-11-23T08:43:43;96608.78;;;7.93;100.00
20987;BME280;10652;50.306;8.570;2022-11-23T08:47:45;96609.75;;;7.91;100.00
20987;BME280;10652;50.306;8.570;2022-11-23T08:51:48;96611.44;;;7.92;100.00
20987;BME280;10652;50.306;8.570;2022-11-23T08:55:51;96609.69;;;7.92;100.00
20987;BME280;10652;50.306;8.570;2022-11-23T08:59:53;96607.88;;;7.94;100.00
20987;BME280;10652;50.306;8.570;2022-11-23T09:03:55;96611.22;;;7.96;100.00
20987;BME280;10652;50.306;8.570;2022-11-23T09:08:01;96607.63;;;7.99;100.00
20987;BME280;10652;50.306;8.570;2022-11-23T09:12:03;96601.59;;;8.14;100.00
20987;BME280;10652;50.306;8.570;2022-11-23T09:16:06;96596.56;;;8.27;100.00
20987;BME280;10652;50.306;8.570;2022-11-23T09:20:09;96597.97;;;8.34;100.00
20987;BME280;10652;50.306;8.570;2022-11-23T09:24:11;96600.41;;;8.37;100.00
20987;BME280;10652;50.306;8.570;2022-11-23T09:28:16;96605.63;;;8.37;100.00
20987;BME280;10652;50.306;8.570;2022-11-23T09:32:20;96606.53;;;8.36;100.00
20987;BME280;10652;50.306;8.570;2022-11-23T09:36:22;96599.56;;;8.36;100.00
20987;BME280;10652;50.306;8.570;2022-11-23T09:40:30;96599.31;;;8.41;100.00
20987;BME280;10652;50.306;8.570;2022-11-23T09:44:55;96599.00;;;8.47;100.00
20987;BME280;10652;50.306;8.570;2022-11-23T09:49:08;96606.94;;;8.61;100.00
20987;BME280;10652;50.306;8.570;2022-11-23T09:53:15;96597.16;;;8.65;100.00
20987;BME280;10652;50.306;8.570;2022-11-23T09:57:23;96598.56;;;8.55;100.00
20987;BME280;10652;50.306;8.570;2022-11-23T10:01:27;96593.09;;;8.59;100.00
20987;BME280;10652;50.306;8.570;2022-11-23T10:05:35;96603.22;;;8.65;100.00
20987;BME280;10652;50.306;8.570;2022-11-23T10:22:23;96599.16;;;8.91;100.00
20987;BME280;10652;50.306;8.570;2022-11-23T10:26:31;96592.06;;;9.09;100.00
20987;BME280;10652;50.306;8.570;2022-11-23T10:30:33;96597.25;;;9.40;100.00
20987;BME280;10652;50.306;8.570;2022-11-23T10:34:50;96589.75;;;9.64;99.73
20987;BME280;10652;50.306;8.570;2022-11-23T10:38:59;96585.38;;;9.64;96.82
20987;BME280;10652;50.306;8.570;2022-11-23T10:43:07;96597.84;;;9.59;95.11
20987;BME280;10652;50.306;8.570;2022-11-23T10:47:32;96590.44;;;9.67;93.99
20987;BME280;10652;50.306;8.570;2022-11-23T10:51:36;96579.78;;;9.70;92.56
20987;BME280;10652;50.306;8.570;2022-11-23T10:56:05;96577.47;;;9.80;92.53
20987;BME280;10652;50.306;8.570;2022-11-23T11:00:16;96578.34;;;9.95;92.63
20987;BME280;10652;50.306;8.570;2022-11-23T11:04:22;96579.59;;;10.17;92.30
20987;BME280;10652;50.306;8.570;2022-11-23T11:08:32;96572.19;;;10.24;90.36
20987;BME280;10652;50.306;8.570;2022-11-23T11:12:34;96569.28;;;10.14;89.00
20987;BME280;10652;50.306;8.570;2022-11-23T11:16:36;96562.53;;;10.10;88.39
20987;BME280;10652;50.306;8.570;2022-11-23T11:20:43;96561.94;;;10.21;88.83
20987;BME280;10652;50.306;8.570;2022-11-23T11:24:46;96559.75;;;10.27;88.00
20987;BME280;10652;50.306;8.570;2022-11-23T11:28:52;96544.63;;;10.18;87.14
20987;BME280;10652;50.306;8.570;2022-11-23T11:37:15;96537.84;;;10.16;86.48
20987;BME280;10652;50.306;8.570;2022-11-23T11:41:20;96530.00;;;10.16;85.71
20987;BME280;10652;50.306;8.570;2022-11-23T11:45:35;96527.94;;;10.21;85.46
20987;BME280;10652;50.306;8.570;2022-11-23T11:49:44;96526.59;;;10.28;84.30
20987;BME280;10652;50.306;8.570;2022-11-23T11:58:16;96518.09;;;10.10;82.64
20987;BME280;10652;50.306;8.570;2022-11-23T12:02:42;96508.03;;;10.18;82.26
20987;BME280;10652;50.306;8.570;2022-11-23T12:07:01;96508.28;;;10.28;81.50
20987;BME280;10652;50.306;8.570;2022-11-23T12:11:09;96505.09;;;10.37;81.74
20987;BME280;10652;50.306;8.570;2022-11-23T12:15:20;96498.72;;;10.41;81.44
20987;BME280;10652;50.306;8.570;2022-11-23T12:24:27;96492.28;;;10.47;80.77
20987;BME280;10652;50.306;8.570;2022-11-23T12:28:53;96486.00;;;10.49;80.02
20987;BME280;10652;50.306;8.570;2022-11-23T12:41:44;96484.66;;;10.30;78.53
20987;BME280;10652;50.306;8.570;2022-11-23T12:50:22;96474.13;;;10.17;76.34
20987;BME280;10652;50.306;8.570;2022-11-23T12:54:56;96470.72;;;10.15;76.75
20987;BME280;10652;50.306;8.570;2022-11-23T12:59:01;96475.63;;;10.21;76.53
20987;BME280;10652;50.306;8.570;2022-11-23T13:12:31;96458.06;;;9.95;76.04
20987;BME280;10652;50.306;8.570;2022-11-23T13:17:15;96468.53;;;9.95;76.21
20987;BME280;10652;50.306;8.570;2022-11-23T13:21:39;96460.78;;;9.93;76.39
20987;BME280;10652;50.306;8.570;2022-11-23T13:25:41;96458.25;;;9.92;75.20
20987;BME280;10652;50.306;8.570;2022-11-23T13:34:00;96467.41;;;9.85;72.45
20987;BME280;10652;50.306;8.570;2022-11-23T13:38:23;96448.34;;;9.82;71.92
20987;BME280;10652;50.306;8.570;2022-11-23T13:42:26;96456.19;;;9.82;71.84
20987;BME280;10652;50.306;8.570;2022-11-23T13:46:33;96439.94;;;9.77;69.54
20987;BME280;10652;50.306;8.570;2022-11-23T13:50:39;96433.34;;;9.72;68.62
20987;BME280;10652;50.306;8.570;2022-11-23T13:54:52;96431.75;;;9.69;68.33
20987;BME280;10652;50.306;8.570;2022-11-23T14:07:41;96410.97;;;9.54;66.71
20987;BME280;10652;50.306;8.570;2022-11-23T14:11:55;96393.69;;;9.51;66.67
20987;BME280;10652;50.306;8.570;2022-11-23T14:16:01;96397.34;;;9.49;66.77
20987;BME280;10652;50.306;8.570;2022-11-23T14:33:21;96390.31;;;9.21;66.24
20987;BME280;10652;50.306;8.570;2022-11-23T14:37:38;96397.88;;;9.11;67.10
20987;BME280;10652;50.306;8.570;2022-11-23T14:41:44;96404.63;;;9.00;67.76
20987;BME280;10652;50.306;8.570;2022-11-23T14:45:50;96391.19;;;8.91;67.92
20987;BME280;10652;50.306;8.570;2022-11-23T14:49:53;96394.47;;;8.81;68.68
20987;BME280;10652;50.306;8.570;2022-11-23T14:53:58;96387.25;;;8.70;69.23
20987;BME280;10652;50.306;8.570;2022-11-23T14:58:03;96397.28;;;8.62;69.83
20987;BME280;10652;50.306;8.570;2022-11-23T15:02:17;96385.63;;;8.54;70.46
20987;BME280;10652;50.306;8.570;2022-11-23T15:06:24;96397.41;;;8.45;70.87
20987;BME280;10652;50.306;8.570;2022-11-23T15:11:00;96399.78;;;8.34;71.40
20987;BME280;10652;50.306;8.570;2022-11-23T15:15:24;96396.91;;;8.23;71.97
20987;BME280;10652;50.306;8.570;2022-11-23T15:19:28;96400.78;;;8.16;72.52
20987;BME280;10652;50.306;8.570;2022-11-23T15:23:35;96401.31;;;8.07;72.68
20987;BME280;10652;50.306;8.570;2022-11-23T15:27:40;96410.53;;;7.96;73.28
20987;BME280;10652;50.306;8.570;2022-11-23T15:31:42;96406.59;;;7.89;74.31
20987;BME280;10652;50.306;8.570;2022-11-23T15:36:05;96413.06;;;7.82;74.70
20987;BME280;10652;50.306;8.570;2022-11-23T15:40:11;96424.81;;;7.74;75.15
20987;BME280;10652;50.306;8.570;2022-11-23T15:44:23;96429.53;;;7.67;76.22
20987;BME280;10652;50.306;8.570;2022-11-23T15:48:33;96424.66;;;7.61;77.00
20987;BME280;10652;50.306;8.570;2022-11-23T15:52:36;96418.75;;;7.57;77.45
20987;BME280;10652;50.306;8.570;2022-11-23T15:56:39;96422.28;;;7.56;78.43
20987;BME280;10652;50.306;8.570;2022-11-23T16:00:50;96420.22;;;7.63;78.78
20987;BME280;10652;50.306;8.570;2022-11-23T16:05:07;96420.09;;;7.65;78.92
20987;BME280;10652;50.306;8.570;2022-11-23T16:09:38;96421.13;;;7.62;78.98
20987;BME280;10652;50.306;8.570;2022-11-23T16:14:32;96419.69;;;7.56;79.50
20987;BME280;10652;50.306;8.570;2022-11-23T16:18:35;96414.53;;;7.55;80.36
20987;BME280;10652;50.306;8.570;2022-11-23T16:22:39;96424.81;;;7.58;80.67
20987;BME280;10652;50.306;8.570;2022-11-23T16:26:41;96426.16;;;7.65;80.66
20987;BME280;10652;50.306;8.570;2022-11-23T16:30:44;96436.84;;;7.76;80.75
20987;BME280;10652;50.306;8.570;2022-11-23T16:34:50;96448.19;;;7.91;80.67
20987;BME280;10652;50.306;8.570;2022-11-23T16:38:54;96450.22;;;8.01;80.18
20987;BME280;10652;50.306;8.570;2022-11-23T16:42:59;96465.19;;;8.14;79.24
20987;BME280;10652;50.306;8.570;2022-11-23T16:47:21;96468.25;;;8.22;78.56
20987;BME280;10652;50.306;8.570;2022-11-23T16:51:23;96469.56;;;8.29;78.26
20987;BME280;10652;50.306;8.570;2022-11-23T16:55:26;96479.72;;;8.35;78.07
20987;BME280;10652;50.306;8.570;2022-11-23T16:59:28;96487.34;;;8.38;78.03
20987;BME280;10652;50.306;8.570;2022-11-23T17:03:30;96491.66;;;8.39;78.61
20987;BME280;10652;50.306;8.570;2022-11-23T17:07:34;96495.94;;;8.40;78.31
20987;BME280;10652;50.306;8.570;2022-11-23T17:11:41;96496.75;;;8.40;78.47
20987;BME280;10652;50.306;8.570;2022-11-23T17:15:45;96498.19;;;8.46;79.40
20987;BME280;10652;50.306;8.570;2022-11-23T17:19:48;96499.69;;;8.50;79.49
20987;BME280;10652;50.306;8.570;2022-11-23T17:23:51;96508.03;;;8.57;79.11
20987;BME280;10652;50.306;8.570;2022-11-23T17:27:53;96518.22;;;8.61;77.88
20987;BME280;10652;50.306;8.570;2022-11-23T17:31:55;96524.88;;;8.67;77.69
20987;BME280;10652;50.306;8.570;2022-11-23T17:35:57;96526.44;;;8.69;77.44
20987;BME280;10652;50.306;8.570;2022-11-23T17:40:00;96528.22;;;8.69;77.16
20987;BME280;10652;50.306;8.570;2022-11-23T17:44:02;96527.31;;;8.70;77.62
20987;BME280;10652;50.306;8.570;2022-11-23T17:48:05;96546.22;;;8.73;77.37
20987;BME280;10652;50.306;8.570;2022-11-23T17:52:09;96549.03;;;8.70;77.96
20987;BME280;10652;50.306;8.570;2022-11-23T17:56:17;96567.47;;;8.67;78.45
20987;BME280;10652;50.306;8.570;2022-11-23T18:00:21;96584.38;;;8.60;79.92
20987;BME280;10652;50.306;8.570;2022-11-23T18:04:24;96584.44;;;8.59;81.76
20987;BME280;10652;50.306;8.570;2022-11-23T18:08:26;96595.13;;;8.54;83.01
20987;BME280;10652;50.306;8.570;2022-11-23T18:12:28;96591.25;;;8.45;84.48
20987;BME280;10652;50.306;8.570;2022-11-23T18:16:30;96596.09;;;8.36;85.91
20987;BME280;10652;50.306;8.570;2022-11-23T18:20:32;96604.19;;;8.31;87.66
20987;BME280;10652;50.306;8.570;2022-11-23T18:24:35;96603.66;;;8.25;89.04
20987;BME280;10652;50.306;8.570;2022-11-23T18:28:37;96621.59;;;8.14;90.11
20987;BME280;10652;50.306;8.570;2022-11-23T18:32:39;96620.41;;;8.03;91.21
20987;BME280;10652;50.306;8.570;2022-11-23T18:36:41;96622.41;;;7.98;92.54
20987;BME280;10652;50.306;8.570;2022-11-23T18:40:43;96627.31;;;7.87;92.49
20987;BME280;10652;50.306;8.570;2022-11-23T18:44:45;96620.06;;;7.77;93.39
20987;BME280;10652;50.306;8.570;2022-11-23T18:48:48;96628.03;;;7.74;93.51
20987;BME280;10652;50.306;8.570;2022-11-23T18:52:51;96629.03;;;7.71;93.95
20987;BME280;10652;50.306;8.570;2022-11-23T18:56:53;96637.75;;;7.70;94.48
20987;BME280;10652;50.306;8.570;2022-11-23T19:00:55;96634.53;;;7.65;94.35
20987;BME280;10652;50.306;8.570;2022-11-23T19:04:57;96648.81;;;7.58;94.37
20987;BME280;10652;50.306;8.570;2022-11-23T19:09:00;96650.47;;;7.59;95.25
20987;BME280;10652;50.306;8.570;2022-11-23T19:13:03;96660.81;;;7.60;95.43
20987;BME280;10652;50.306;8.570;2022-11-23T19:17:07;96656.38;;;7.63;95.65
20987;BME280;10652;50.306;8.570;2022-11-23T19:21:20;96664.09;;;7.64;95.76
20987;BME280;10652;50.306;8.570;2022-11-23T19:25:22;96665.81;;;7.65;96.12
20987;BME280;10652;50.306;8.570;2022-11-23T19:29:25;96677.28;;;7.61;96.31
20987;BME280;10652;50.306;8.570;2022-11-23T19:33:29;96682.34;;;7.64;96.89
20987;BME280;10652;50.306;8.570;2022-11-23T19:37:34;96689.09;;;7.68;97.36
20987;BME280;10652;50.306;8.570;2022-11-23T19:41:36;96691.41;;;7.74;96.75
20987;BME280;10652;50.306;8.570;2022-11-23T19:45:38;96690.31;;;7.78;97.07
20987;BME280;10652;50.306;8.570;2022-11-23T19:49:40;96697.06;;;7.82;96.69
20987;BME280;10652;50.306;8.570;2022-11-23T19:53:43;96703.97;;;7.83;96.29
20987;BME280;10652;50.306;8.570;2022-11-23T19:57:46;96701.38;;;7.83;96.49
20987;BME280;10652;50.306;8.570;2022-11-23T20:01:48;96729.13;;;7.84;96.84
20987;BME280;10652;50.306;8.570;2022-11-23T20:05:58;96731.63;;;7.86;96.72
20987;BME280;10652;50.306;8.570;2022-11-23T20:10:00;96730.66;;;7.88;97.29
20987;BME280;10652;50.306;8.570;2022-11-23T20:14:03;96741.75;;;7.92;97.34
20987;BME280;10652;50.306;8.570;2022-11-23T20:18:05;96745.81;;;7.97;97.45
20987;BME280;10652;50.306;8.570;2022-11-23T20:22:07;96751.03;;;7.97;97.02
20987;BME280;10652;50.306;8.570;2022-11-23T20:26:11;96761.31;;;8.00;97.52
20987;BME280;10652;50.306;8.570;2022-11-23T20:30:15;96771.72;;;8.00;98.11
20987;BME280;10652;50.306;8.570;2022-11-23T20:34:17;96780.16;;;8.05;98.76
20987;BME280;10652;50.306;8.570;2022-11-23T20:38:26;96772.91;;;8.12;99.19
20987;BME280;10652;50.306;8.570;2022-11-23T20:42:28;96778.13;;;8.12;99.00
20987;BME280;10652;50.306;8.570;2022-11-23T20:46:31;96792.81;;;8.13;99.44
20987;BME280;10652;50.306;8.570;2022-11-23T20:50:53;96802.09;;;8.19;100.00
20987;BME280;10652;50.306;8.570;2022-11-23T20:54:55;96798.75;;;8.17;99.81
20987;BME280;10652;50.306;8.570;2022-11-23T20:58:57;96806.06;;;8.09;99.56
20987;BME280;10652;50.306;8.570;2022-11-23T21:03:04;96806.69;;;7.96;99.43
20987;BME280;10652;50.306;8.570;2022-11-23T21:07:07;96816.00;;;7.83;99.83
20987;BME280;10652;50.306;8.570;2022-11-23T21:11:13;96820.28;;;7.67;100.00
20987;BME280;10652;50.306;8.570;2022-11-23T21:15:34;96822.81;;;7.50;100.00
20987;BME280;10652;50.306;8.570;2022-11-23T21:19:38;96833.03;;;7.36;100.00
20987;BME280;10652;50.306;8.570;2022-11-23T21:23:40;96830.00;;;7.26;100.00
20987;BME280;10652;50.306;8.570;2022-11-23T21:27:42;96839.06;;;7.18;100.00
20987;BME280;10652;50.306;8.570;2022-11-23T21:31:45;96848.25;;;7.06;100.00
20987;BME280;10652;50.306;8.570;2022-11-23T21:35:48;96859.97;;;6.96;100.00
20987;BME280;10652;50.306;8.570;2022-11-23T21:39:50;96862.03;;;6.89;100.00
20987;BME280;10652;50.306;8.570;2022-11-23T21:43:54;96876.94;;;6.86;100.00
20987;BME280;10652;50.306;8.570;2022-11-23T21:47:56;96878.72;;;6.84;100.00
20987;BME280;10652;50.306;8.570;2022-11-23T21:51:58;96882.44;;;6.78;100.00
20987;BME280;10652;50.306;8.570;2022-11-23T21:56:02;96888.53;;;6.77;100.00
20987;BME280;10652;50.306;8.570;2022-11-23T22:00:05;96893.75;;;6.77;100.00
20987;BME280;10652;50.306;8.570;2022-11-23T22:04:13;96901.06;;;6.89;100.00
20987;BME280;10652;50.306;8.570;2022-11-23T22:08:16;96903.66;;;6.89;100.00
20987;BME280;10652;50.306;8.570;2022-11-23T22:12:33;96906.31;;;6.88;100.00
20987;BME280;10652;50.306;8.570;2022-11-23T22:16:38;96916.25;;;6.78;100.00
20987;BME280;10652;50.306;8.570;2022-11-23T22:20:40;96922.88;;;6.65;100.00
20987;BME280;10652;50.306;8.570;2022-11-23T22:24:42;96927.44;;;6.60;100.00
20987;BME280;10652;50.306;8.570;2022-11-23T22:28:49;96930.81;;;6.62;100.00
20987;BME280;10652;50.306;8.570;2022-11-23T22:32:52;96930.53;;;6.68;100.00
20987;BME280;10652;50.306;8.570;2022-11-23T22:36:54;96946.50;;;6.81;100.00
20987;BME280;10652;50.306;8.570;2022-11-23T22:40:56;96945.94;;;6.94;100.00
20987;BME280;10652;50.306;8.570;2022-11-23T22:44:58;96958.16;;;7.12;100.00
20987;BME280;10652;50.306;8.570;2022-11-23T22:49:00;96953.13;;;7.28;100.00
20987;BME280;10652;50.306;8.570;2022-11-23T22:53:02;96965.44;;;7.45;100.00
20987;BME280;10652;50.306;8.570;2022-11-23T22:57:04;96973.59;;;7.56;100.00
20987;BME280;10652;50.306;8.570;2022-11-23T23:01:13;96978.47;;;7.64;100.00
20987;BME280;10652;50.306;8.570;2022-11-23T23:05:15;96978.47;;;7.64;100.00